createdAt,value
2023-05-16T00:01:01.282Z,48.15
2023-05-16T00:03:27.930Z,48.28
2023-05-16T00:05:54.463Z,48.59
2023-05-16T00:08:20.774Z,48.50
2023-05-16T00:10:47.195Z,49.30
2023-05-16T00:13:13.607Z,49.31
2023-05-16T00:15:39.921Z,49.41
2023-05-16T00:18:06.544Z,49.66
2023-05-16T00:20:32.879Z,49.48
2023-05-16T00:23:01.952Z,49.25
2023-05-16T00:25:28.738Z,49.20
2023-05-16T00:27:55.063Z,49.30
2023-05-16T00:30:22.664Z,49.10
2023-05-16T00:32:49.011Z,49.16
2023-05-16T00:35:15.436Z,49.33
2023-05-16T00:37:41.735Z,49.84
2023-05-16T00:40:08.317Z,50.51
2023-05-16T00:42:34.626Z,50.54
2023-05-16T00:45:00.910Z,49.90
2023-05-16T00:47:27.207Z,49.71
2023-05-16T00:49:53.830Z,49.05
2023-05-16T00:52:20.466Z,49.74
2023-05-16T00:54:46.850Z,50.20
2023-05-16T00:57:13.140Z,50.40
2023-05-16T00:59:40.191Z,50.80
2023-05-16T01:02:06.478Z,50.61
2023-05-16T01:04:32.774Z,50.59
2023-05-16T01:06:59.058Z,50.75
2023-05-16T01:09:25.403Z,51.18
2023-05-16T01:11:54.694Z,51.24
2023-05-16T01:14:39.803Z,51.77
2023-05-16T01:17:28.182Z,51.12
2023-05-16T01:19:57.462Z,51.18
2023-05-16T01:22:26.753Z,50.91
2023-05-16T01:24:52.967Z,50.81
2023-05-16T01:27:19.279Z,50.60
2023-05-16T01:29:46.046Z,50.85
2023-05-16T01:32:14.341Z,50.92
2023-05-16T01:34:41.127Z,51.33
2023-05-16T01:37:09.724Z,51.10
2023-05-16T01:39:44.307Z,51.42
2023-05-16T01:42:12.849Z,51.49
2023-05-16T01:44:54.298Z,51.52
2023-05-16T01:47:20.716Z,51.70
2023-05-16T01:49:51.182Z,51.44
2023-05-16T01:52:24.703Z,51.66
2023-05-16T01:54:50.992Z,51.68
2023-05-16T01:57:17.354Z,50.99
2023-05-16T01:59:43.642Z,51.04
2023-05-16T02:02:09.954Z,51.17
2023-05-16T02:04:36.242Z,51.19
2023-05-16T02:07:02.648Z,50.75
2023-05-16T02:09:28.967Z,50.20
2023-05-16T02:11:55.309Z,50.01
2023-05-16T02:14:21.699Z,50.37
2023-05-16T02:16:48.232Z,50.33
2023-05-16T02:19:14.773Z,50.74
2023-05-16T02:21:41.184Z,50.79
2023-05-16T02:24:07.451Z,51.31
2023-05-16T02:26:33.729Z,51.10
2023-05-16T02:29:00.022Z,51.04
2023-05-16T02:31:27.139Z,51.28
2023-05-16T02:33:53.627Z,51.58
2023-05-16T02:36:20.117Z,51.05
2023-05-16T02:38:46.574Z,50.67
2023-05-16T02:41:12.932Z,50.59
2023-05-16T02:43:39.347Z,50.32
2023-05-16T02:46:05.985Z,50.86
2023-05-16T02:48:32.290Z,50.99
2023-05-16T02:50:58.573Z,51.73
2023-05-16T02:53:24.913Z,51.37
2023-05-16T02:55:51.192Z,50.94
2023-05-16T02:58:17.478Z,51.18
2023-05-16T03:00:44.021Z,50.65
2023-05-16T03:03:10.452Z,50.96
2023-05-16T03:05:37.417Z,50.87
2023-05-16T03:08:03.688Z,51.04
2023-05-16T03:10:29.967Z,51.52
2023-05-16T03:12:56.292Z,51.40
2023-05-16T03:15:22.617Z,51.48
2023-05-16T03:17:48.972Z,51.27
2023-05-16T03:20:15.431Z,51.53
2023-05-16T03:22:41.776Z,51.46
2023-05-16T03:25:08.191Z,51.54
2023-05-16T03:27:34.574Z,52.05
2023-05-16T03:30:00.870Z,51.91
2023-05-16T03:32:27.198Z,52.59
2023-05-16T03:34:53.503Z,52.54
2023-05-16T03:37:19.794Z,52.21
2023-05-16T03:39:46.073Z,52.10
2023-05-16T03:42:12.480Z,51.30
2023-05-16T03:44:38.813Z,51.03
2023-05-16T03:47:05.092Z,51.29
2023-05-16T03:49:31.378Z,51.48
2023-05-16T03:51:57.710Z,51.20
2023-05-16T03:54:24.102Z,51.06
2023-05-16T03:56:50.430Z,51.26
2023-05-16T03:59:16.797Z,51.25
2023-05-16T04:01:43.507Z,51.50
2023-05-16T04:04:09.847Z,51.48
2023-05-16T04:06:36.196Z,51.53
2023-05-16T04:09:02.474Z,51.83
2023-05-16T04:11:28.819Z,51.70
2023-05-16T04:13:55.632Z,51.28
2023-05-16T04:16:21.999Z,51.14
2023-05-16T04:18:48.374Z,51.34
2023-05-16T04:21:15.289Z,51.95
2023-05-16T04:23:41.778Z,51.78
2023-05-16T04:26:08.595Z,52.29
2023-05-16T04:28:34.948Z,53.24
2023-05-16T04:31:01.859Z,53.32
2023-05-16T04:33:28.265Z,53.20
2023-05-16T04:35:58.571Z,52.96
2023-05-16T04:38:24.850Z,53.46
2023-05-16T04:40:51.767Z,53.63
2023-05-16T04:43:18.386Z,53.34
2023-05-16T04:45:44.793Z,52.79
2023-05-16T04:48:12.179Z,52.22
2023-05-16T04:50:38.483Z,52.18
2023-05-16T04:53:04.826Z,52.41
2023-05-16T04:55:31.467Z,53.19
2023-05-16T04:57:57.920Z,53.16
2023-05-16T05:00:24.379Z,52.38
2023-05-16T05:02:50.835Z,52.82
2023-05-16T05:05:17.266Z,52.47
2023-05-16T05:07:43.555Z,52.52
2023-05-16T05:10:11.554Z,51.71
2023-05-16T05:12:37.841Z,52.27
2023-05-16T05:15:04.679Z,53.06
2023-05-16T05:17:31.034Z,53.71
2023-05-16T05:19:57.392Z,53.29
2023-05-16T05:22:23.827Z,52.54
2023-05-16T05:24:50.126Z,52.07
2023-05-16T05:27:16.413Z,52.06
2023-05-16T05:29:42.751Z,51.72
2023-05-16T05:32:09.145Z,51.84
2023-05-16T05:34:35.589Z,51.83
2023-05-16T05:37:01.869Z,53.60
2023-05-16T05:39:28.238Z,54.24
2023-05-16T05:41:54.627Z,54.64
2023-05-16T05:44:20.962Z,54.14
2023-05-16T05:46:47.362Z,53.48
2023-05-16T05:49:13.681Z,54.12
2023-05-16T05:51:39.961Z,54.00
2023-05-16T05:54:06.351Z,53.72
2023-05-16T05:56:32.638Z,53.22
2023-05-16T05:58:58.939Z,54.00
2023-05-16T06:01:25.274Z,54.30
2023-05-16T06:03:51.885Z,54.59
2023-05-16T06:06:18.195Z,54.38
2023-05-16T06:08:44.517Z,55.30
2023-05-16T06:11:10.816Z,55.71
2023-05-16T06:13:37.131Z,55.22
2023-05-16T06:16:03.517Z,54.41
2023-05-16T06:18:29.932Z,54.10
2023-05-16T06:20:56.264Z,54.21
2023-05-16T06:23:22.556Z,55.27
2023-05-16T06:25:48.852Z,54.68
2023-05-16T06:28:15.231Z,53.95
2023-05-16T06:30:41.558Z,53.22
2023-05-16T06:33:07.990Z,54.62
2023-05-16T06:35:34.319Z,53.94
2023-05-16T06:38:00.621Z,52.87
2023-05-16T06:40:26.905Z,53.86
2023-05-16T06:42:53.331Z,54.18
2023-05-16T06:45:19.772Z,55.07
2023-05-16T06:47:46.156Z,55.75
2023-05-16T06:50:12.578Z,55.89
2023-05-16T06:52:38.904Z,56.59
2023-05-16T06:55:05.775Z,57.11
2023-05-16T06:57:32.120Z,55.76
2023-05-16T06:59:58.460Z,54.52
2023-05-16T07:02:24.853Z,55.42
2023-05-16T07:04:51.486Z,56.91
2023-05-16T07:07:17.834Z,57.37
2023-05-16T07:09:44.171Z,55.93
2023-05-16T07:12:10.559Z,54.91
2023-05-16T07:14:36.921Z,54.25
2023-05-16T07:17:03.799Z,54.60
2023-05-16T07:19:30.437Z,55.98
2023-05-16T07:21:56.832Z,56.63
2023-05-16T07:24:23.210Z,54.72
2023-05-16T07:26:49.975Z,55.53
2023-05-16T07:29:16.439Z,55.03
2023-05-16T07:31:42.805Z,56.48
2023-05-16T07:34:09.655Z,57.99
2023-05-16T07:36:36.016Z,55.24
2023-05-16T07:39:02.405Z,56.93
2023-05-16T07:41:29.341Z,55.02
2023-05-16T07:43:55.692Z,54.62
2023-05-16T07:46:22.074Z,54.33
2023-05-16T07:48:48.471Z,55.42
2023-05-16T07:51:14.790Z,55.59
2023-05-16T07:53:41.975Z,56.22
2023-05-16T07:56:08.719Z,56.26
2023-05-16T07:58:35.155Z,56.14
2023-05-16T08:01:01.684Z,56.83
2023-05-16T08:03:28.250Z,56.92
2023-05-16T08:05:54.806Z,55.59
2023-05-16T08:08:21.568Z,56.36
2023-05-16T08:10:48.062Z,56.36
2023-05-16T08:13:14.428Z,55.84
2023-05-16T08:15:40.874Z,55.28
2023-05-16T08:18:08.465Z,55.89
2023-05-16T08:20:34.839Z,56.39
2023-05-16T08:23:01.212Z,55.81
2023-05-16T08:25:27.936Z,54.43
2023-05-16T08:27:54.495Z,54.34
2023-05-16T08:30:21.047Z,52.58
2023-05-16T08:32:47.651Z,53.44
2023-05-16T08:35:14.327Z,53.61
2023-05-16T08:37:40.765Z,53.82
2023-05-16T08:40:08.222Z,54.00
2023-05-16T08:42:34.826Z,53.31
2023-05-16T08:45:01.322Z,52.96
2023-05-16T08:47:27.712Z,51.71
2023-05-16T08:49:54.196Z,50.67
2023-05-16T08:52:21.235Z,49.71
2023-05-16T08:54:55.264Z,49.24
2023-05-16T08:57:33.011Z,51.35
2023-05-16T08:59:59.854Z,51.45
2023-05-16T09:02:26.825Z,51.43
2023-05-16T09:04:53.270Z,52.33
2023-05-16T09:07:19.633Z,51.89
2023-05-16T09:09:46.008Z,51.95
2023-05-16T09:12:12.343Z,51.93
2023-05-16T09:14:38.745Z,51.45
2023-05-16T09:17:05.868Z,54.70
2023-05-16T09:19:39.563Z,55.19
2023-05-16T09:22:06.840Z,54.35
2023-05-16T09:24:33.167Z,52.25
2023-05-16T09:27:07.125Z,52.96
2023-05-16T09:29:36.065Z,52.34
2023-05-16T09:32:12.560Z,51.17
2023-05-16T09:34:40.055Z,52.57
2023-05-16T09:37:06.394Z,50.73
2023-05-16T09:39:32.737Z,51.61
2023-05-16T09:41:59.194Z,52.33
2023-05-16T09:44:25.635Z,49.07
2023-05-16T09:46:53.678Z,50.05
2023-05-16T09:49:20.036Z,50.90
2023-05-16T09:51:46.465Z,49.97
2023-05-16T09:54:13.058Z,48.86
2023-05-16T09:56:49.128Z,51.24
2023-05-16T09:59:15.521Z,51.83
2023-05-16T10:01:41.904Z,48.45
2023-05-16T10:04:10.579Z,47.81
2023-05-16T10:06:37.504Z,49.61
2023-05-16T10:09:03.908Z,49.23
2023-05-16T10:11:30.354Z,47.54
2023-05-16T10:13:56.918Z,47.25
2023-05-16T10:16:23.828Z,49.11
2023-05-16T10:18:50.246Z,48.20
2023-05-16T10:21:16.917Z,48.65
2023-05-16T10:23:43.757Z,49.37
2023-05-16T10:26:10.263Z,47.89
2023-05-16T10:28:36.749Z,46.14
2023-05-16T10:31:03.132Z,48.12
2023-05-16T10:33:29.758Z,47.29
2023-05-16T10:35:56.086Z,45.72
2023-05-16T10:38:23.906Z,46.20
2023-05-16T10:40:50.317Z,49.37
2023-05-16T10:43:26.876Z,48.37
2023-05-16T10:45:56.736Z,46.98
2023-05-16T10:48:36.113Z,46.55
2023-05-16T10:51:03.226Z,46.95
2023-05-16T10:53:33.331Z,45.97
2023-05-16T10:55:59.711Z,46.54
2023-05-16T10:58:38.065Z,48.12
2023-05-16T11:01:17.209Z,49.75
2023-05-16T11:03:59.313Z,48.71
2023-05-16T11:06:32.686Z,46.81
2023-05-16T11:09:07.945Z,44.75
2023-05-16T11:11:44.332Z,44.20
2023-05-16T11:14:23.124Z,47.99
2023-05-16T11:16:54.691Z,46.42
2023-05-16T11:19:39.631Z,48.20
2023-05-16T11:22:07.178Z,48.53
2023-05-16T11:24:34.888Z,46.12
2023-05-16T11:27:01.388Z,45.56
2023-05-16T11:29:34.417Z,47.93
2023-05-16T11:32:01.155Z,48.42
2023-05-16T11:34:27.577Z,46.35
2023-05-16T11:36:53.940Z,44.15
2023-05-16T11:39:20.491Z,45.64
2023-05-16T11:41:48.747Z,43.86
2023-05-16T11:44:15.424Z,44.67
2023-05-16T11:46:41.873Z,43.79
2023-05-16T11:49:11.482Z,45.82
2023-05-16T11:51:41.069Z,42.98
2023-05-16T11:54:07.785Z,44.95
2023-05-16T11:56:35.394Z,44.22
2023-05-16T11:59:01.754Z,44.21
2023-05-16T12:01:37.787Z,43.15
2023-05-16T12:04:11.627Z,45.53
2023-05-16T12:06:43.161Z,44.86
2023-05-16T12:09:12.371Z,46.76
2023-05-16T12:11:38.744Z,44.88
2023-05-16T12:14:05.678Z,44.51
2023-05-16T12:16:32.786Z,48.08
2023-05-16T12:18:59.394Z,48.53
2023-05-16T12:21:26.368Z,44.89
2023-05-16T12:23:55.298Z,43.79
2023-05-16T12:26:30.573Z,42.85
2023-05-16T12:29:00.479Z,43.63
2023-05-16T12:31:30.998Z,42.90
2023-05-16T12:33:58.737Z,44.83
2023-05-16T12:36:26.198Z,44.53
2023-05-16T12:38:52.896Z,42.65
2023-05-16T12:41:19.893Z,46.69
2023-05-16T12:43:46.245Z,43.04
2023-05-16T12:46:12.673Z,43.75
2023-05-16T12:48:45.597Z,45.26
2023-05-16T12:51:13.709Z,44.07
2023-05-16T12:53:57.538Z,43.98
2023-05-16T12:56:28.230Z,42.20
2023-05-16T12:58:54.600Z,43.42
2023-05-16T13:01:20.991Z,42.73
2023-05-16T13:03:47.395Z,42.02
2023-05-16T13:06:13.874Z,40.69
2023-05-16T13:08:40.267Z,40.43
2023-05-16T13:11:06.709Z,41.43
2023-05-16T13:13:36.505Z,42.26
2023-05-16T13:16:04.264Z,41.46
2023-05-16T13:18:31.318Z,43.45
2023-05-16T13:20:57.840Z,44.82
2023-05-16T13:23:24.181Z,43.08
2023-05-16T13:25:52.561Z,43.59
2023-05-16T13:28:18.953Z,42.82
2023-05-16T13:30:45.362Z,41.33
2023-05-16T13:33:11.758Z,40.93
2023-05-16T13:35:38.272Z,40.41
2023-05-16T13:38:04.585Z,42.86
2023-05-16T13:40:30.948Z,43.41
2023-05-16T13:42:57.412Z,44.67
2023-05-16T13:45:23.749Z,43.41
2023-05-16T13:47:50.320Z,43.85
2023-05-16T13:50:16.695Z,44.19
2023-05-16T13:52:43.907Z,43.51
2023-05-16T13:55:10.262Z,43.07
2023-05-16T13:57:36.626Z,41.45
2023-05-16T14:00:27.961Z,41.52
2023-05-16T14:02:55.064Z,40.73
2023-05-16T14:05:21.436Z,42.11
2023-05-16T14:07:47.862Z,42.23
2023-05-16T14:10:14.229Z,40.25
2023-05-16T14:12:40.774Z,40.09
2023-05-16T14:15:07.672Z,40.73
2023-05-16T14:17:34.133Z,41.01
2023-05-16T14:20:00.556Z,40.63
2023-05-16T14:22:28.633Z,42.40
2023-05-16T14:24:54.961Z,42.33
2023-05-16T14:27:21.332Z,40.35
2023-05-16T14:29:48.792Z,38.90
2023-05-16T14:32:15.249Z,38.16
2023-05-16T14:34:41.772Z,38.90
2023-05-16T14:37:10.221Z,39.88
2023-05-16T14:39:36.582Z,41.47
2023-05-16T14:42:02.935Z,41.00
2023-05-16T14:44:29.346Z,40.96
2023-05-16T14:46:55.746Z,36.80
2023-05-16T14:49:22.057Z,35.56
2023-05-16T14:51:50.406Z,34.94
2023-05-16T14:54:16.961Z,37.81
2023-05-16T14:56:44.727Z,37.08
2023-05-16T14:59:11.071Z,36.29
2023-05-16T15:01:37.747Z,35.82
2023-05-16T15:04:04.363Z,36.92
2023-05-16T15:06:31.070Z,37.79
2023-05-16T15:08:57.392Z,38.85
2023-05-16T15:11:23.803Z,39.79
2023-05-16T15:13:50.260Z,39.41
2023-05-16T15:16:16.767Z,37.28
2023-05-16T15:18:43.631Z,36.59
2023-05-16T15:21:10.128Z,43.49
2023-05-16T15:23:36.611Z,44.82
2023-05-16T15:26:03.122Z,45.23
2023-05-16T15:28:31.220Z,45.54
2023-05-16T15:30:57.542Z,40.76
2023-05-16T15:33:23.898Z,41.29
2023-05-16T15:35:50.352Z,39.39
2023-05-16T15:38:16.680Z,42.19
2023-05-16T15:40:43.012Z,42.96
2023-05-16T15:43:09.339Z,42.40
2023-05-16T15:45:39.292Z,41.77
2023-05-16T15:48:07.415Z,40.17
2023-05-16T15:50:34.312Z,38.36
2023-05-16T15:53:01.031Z,36.65
2023-05-16T15:55:27.831Z,36.99
2023-05-16T15:57:57.158Z,40.35
2023-05-16T16:00:24.046Z,44.14
2023-05-16T16:02:50.506Z,43.61
2023-05-16T16:05:16.892Z,41.33
2023-05-16T16:07:43.333Z,41.58
2023-05-16T16:10:09.882Z,39.27
2023-05-16T16:12:37.052Z,42.22
2023-05-16T16:15:06.433Z,41.74
2023-05-16T16:17:33.128Z,40.81
2023-05-16T16:19:59.530Z,39.72
2023-05-16T16:22:25.940Z,41.77
2023-05-16T16:24:52.768Z,40.63
2023-05-16T16:27:19.156Z,43.58
2023-05-16T16:29:45.520Z,43.89
2023-05-16T16:32:11.845Z,43.50
2023-05-16T16:34:38.169Z,44.03
2023-05-16T16:37:04.549Z,44.32
2023-05-16T16:39:33.048Z,44.05
2023-05-16T16:41:59.793Z,44.70
2023-05-16T16:44:26.181Z,45.77
2023-05-16T16:46:52.594Z,45.87
2023-05-16T16:49:19.116Z,45.88
2023-05-16T16:57:02.165Z,43.47
2023-05-16T16:59:28.521Z,43.87
2023-05-16T17:01:54.954Z,44.41
2023-05-16T17:04:21.350Z,43.67
2023-05-16T17:06:48.847Z,44.23
2023-05-16T17:09:17.783Z,44.62
2023-05-16T17:11:46.541Z,45.22
2023-05-16T17:14:14.247Z,44.42
2023-05-16T17:16:43.584Z,45.05
2023-05-16T17:19:09.940Z,45.10
2023-05-16T17:21:37.066Z,44.62
2023-05-16T17:24:03.604Z,43.93
2023-05-16T17:26:30.043Z,43.98
2023-05-16T17:28:56.590Z,43.99
2023-05-16T17:31:22.925Z,45.09
2023-05-16T17:33:49.322Z,45.05
2023-05-16T17:36:15.823Z,45.99
2023-05-16T17:38:42.156Z,44.65
2023-05-16T17:41:08.507Z,44.15
2023-05-16T17:43:34.854Z,43.02
2023-05-16T17:46:01.384Z,44.96
2023-05-16T17:48:27.822Z,44.65
2023-05-16T17:50:54.189Z,45.45
2023-05-16T17:53:20.910Z,46.10
2023-05-16T17:55:47.309Z,46.65
2023-05-16T17:58:13.660Z,46.13
2023-05-16T18:00:40.000Z,46.05
2023-05-16T18:03:06.826Z,45.42
2023-05-16T18:05:33.357Z,45.23
2023-05-16T18:07:59.702Z,44.65
2023-05-16T18:10:29.462Z,45.00
2023-05-16T18:13:00.297Z,45.43
2023-05-16T18:15:26.770Z,44.94
2023-05-16T18:17:53.271Z,44.41
2023-05-16T18:20:19.832Z,45.34
2023-05-16T18:22:46.233Z,45.30
2023-05-16T18:25:12.688Z,45.69
2023-05-16T18:27:39.359Z,45.13
2023-05-16T18:30:05.890Z,45.84
2023-05-16T18:32:32.431Z,46.08
2023-05-16T18:34:58.818Z,45.86
2023-05-16T18:37:25.264Z,45.17
2023-05-16T18:39:51.688Z,46.85
2023-05-16T18:42:18.554Z,47.19
2023-05-16T18:44:44.946Z,48.16
2023-05-16T18:47:11.597Z,47.76
2023-05-16T18:49:40.898Z,46.72
2023-05-16T18:52:08.230Z,46.77
2023-05-16T18:54:34.983Z,46.75
2023-05-16T18:57:02.061Z,46.16
2023-05-16T18:59:28.411Z,45.23
2023-05-16T19:01:54.726Z,47.10
2023-05-16T19:04:21.184Z,46.47
2023-05-16T19:06:48.688Z,46.23
2023-05-16T19:09:15.076Z,45.78
2023-05-16T19:11:41.429Z,46.92
2023-05-16T19:14:08.207Z,46.02
2023-05-16T19:16:34.576Z,46.15
2023-05-16T19:19:01.187Z,46.00
2023-05-16T19:21:27.640Z,47.19
2023-05-16T19:23:54.044Z,46.86
2023-05-16T19:26:20.497Z,47.33
2023-05-16T19:28:46.827Z,47.11
2023-05-16T19:31:13.217Z,47.70
2023-05-16T19:33:39.540Z,48.17
2023-05-16T19:36:06.022Z,49.05
2023-05-16T19:38:32.375Z,49.20
2023-05-16T19:40:59.793Z,49.10
2023-05-16T19:43:26.111Z,49.59
2023-05-16T19:45:52.492Z,49.80
2023-05-16T19:48:19.037Z,49.45
2023-05-16T19:50:46.024Z,47.77
2023-05-16T19:53:12.348Z,47.46
2023-05-16T19:55:38.974Z,47.16
2023-05-16T19:58:05.309Z,47.02
2023-05-16T20:00:31.676Z,47.87
2023-05-16T20:02:58.239Z,48.12
2023-05-16T20:05:24.668Z,49.43
2023-05-16T20:07:52.730Z,48.06
2023-05-16T20:10:21.200Z,48.32
2023-05-16T20:12:50.080Z,47.61
2023-05-16T20:15:16.506Z,47.41
2023-05-16T20:17:42.925Z,47.39
2023-05-16T20:20:09.436Z,47.90
2023-05-16T20:22:38.593Z,47.12
2023-05-16T20:25:05.931Z,48.00
2023-05-16T20:27:32.284Z,46.74
2023-05-16T20:29:58.593Z,46.12
2023-05-16T20:32:24.924Z,46.20
2023-05-16T20:34:51.295Z,45.71
2023-05-16T20:37:17.638Z,45.33
2023-05-16T20:39:43.968Z,45.35
2023-05-16T20:42:12.071Z,45.30
2023-05-16T20:44:38.758Z,45.57
2023-05-16T20:47:05.709Z,44.88
2023-05-16T20:49:32.108Z,46.01
2023-05-16T20:51:58.476Z,46.75
2023-05-16T20:54:24.942Z,46.79
2023-05-16T20:56:51.287Z,47.64
2023-05-16T20:59:17.678Z,46.94
2023-05-16T21:01:44.010Z,46.48
2023-05-16T21:04:10.365Z,46.41
2023-05-16T21:06:36.780Z,46.61
2023-05-16T21:09:04.681Z,46.80
2023-05-16T21:11:32.875Z,46.59
2023-05-16T21:13:59.495Z,46.58
2023-05-16T21:16:25.862Z,46.16
2023-05-16T21:18:52.382Z,47.43
2023-05-16T21:21:18.892Z,45.85
2023-05-16T21:23:45.236Z,46.02
2023-05-16T21:26:11.696Z,46.27
2023-05-16T21:28:46.074Z,46.44
2023-05-16T21:31:20.634Z,45.94
2023-05-16T21:33:47.129Z,46.14
2023-05-16T21:36:13.568Z,46.50
2023-05-16T21:38:39.893Z,46.81
2023-05-16T21:41:06.280Z,47.51
2023-05-16T21:43:32.596Z,47.79
2023-05-16T21:45:58.932Z,47.72
2023-05-16T21:48:25.318Z,47.33
2023-05-16T21:50:51.761Z,47.58
2023-05-16T21:53:19.022Z,47.48
2023-05-16T21:55:45.410Z,47.99
2023-05-16T21:58:11.729Z,47.94
2023-05-16T22:00:38.048Z,47.64
2023-05-16T22:03:04.509Z,47.66
2023-05-16T22:05:31.384Z,48.05
2023-05-16T22:07:57.723Z,47.69
2023-05-16T22:10:24.100Z,47.71
2023-05-16T22:12:50.527Z,47.92
2023-05-16T22:15:16.863Z,47.93
2023-05-16T22:17:43.229Z,48.11
2023-05-16T22:20:09.762Z,47.90
2023-05-16T22:22:36.228Z,47.67
2023-05-16T22:25:03.746Z,47.96
2023-05-16T22:27:30.073Z,47.94
2023-05-16T22:29:56.412Z,48.00
2023-05-16T22:32:22.753Z,47.69
2023-05-16T22:34:49.096Z,47.49
2023-05-16T22:37:15.443Z,47.87
2023-05-16T22:39:41.795Z,47.87
2023-05-16T22:42:08.120Z,47.70
2023-05-16T22:44:34.445Z,47.42
2023-05-16T22:47:00.772Z,47.00
2023-05-16T22:49:27.169Z,47.40
2023-05-16T22:51:53.518Z,47.40
2023-05-16T22:54:19.822Z,47.27
2023-05-16T22:56:46.244Z,47.37
2023-05-16T22:59:12.580Z,47.56
2023-05-16T23:01:38.917Z,47.46
2023-05-16T23:04:05.575Z,47.76
2023-05-16T23:06:32.551Z,47.56
2023-05-16T23:09:00.401Z,47.72
2023-05-16T23:11:26.757Z,47.74
2023-05-16T23:13:53.406Z,47.18
2023-05-16T23:16:19.811Z,47.30
2023-05-16T23:18:46.214Z,47.82
2023-05-16T23:21:12.658Z,47.65
2023-05-16T23:23:38.959Z,47.38
2023-05-16T23:26:05.403Z,47.29
2023-05-16T23:28:31.777Z,47.29
2023-05-16T23:30:58.180Z,47.65
2023-05-16T23:33:24.553Z,47.66
2023-05-16T23:35:51.150Z,48.89
2023-05-16T23:38:17.580Z,48.64
2023-05-16T23:40:43.910Z,48.06
2023-05-16T23:43:10.338Z,48.39
2023-05-16T23:45:37.369Z,48.61
2023-05-16T23:48:03.909Z,48.81
2023-05-16T23:50:30.344Z,48.12
2023-05-16T23:52:56.650Z,47.89
2023-05-16T23:55:23.067Z,48.37
2023-05-16T23:57:49.402Z,48.23
